Time;durP1;ratioP1;P1;durP2;ratioP2;P2;SDS_P1;SDS_P2;PMS_P1;PMS_P2;Temp;Humidity;BMP_temperature;BMP_pressure;BME280_temperature;BME280_humidity;BME280_pressure;Samples;Min_cycle;Max_cycle;Signal;HPM_P1;HPM_P2
2022/09/04 00:01:59;;;;;;;;;;;19.10;99.90;;;;;;5034572;28;19913;-67
2022/09/04 00:04:43;;;;;;;;;;;19.20;99.90;;;;;;5039114;28;19912;-67
2022/09/04 00:07:08;;;;;;;;;;;19.30;99.90;;;;;;5036122;28;19913;-67
2022/09/04 00:09:47;;;;;;;;;;;19.40;99.90;;;;;;5053565;28;19917;-66
2022/09/04 00:12:13;;;;;;;;;;;19.50;99.90;;;;;;5038908;28;20369;-67
2022/09/04 00:14:47;;;;;;;;;;;19.60;99.90;;;;;;5033422;28;19917;-67
2022/09/04 00:17:20;;;;;;;;;;;19.60;99.90;;;;;;5035459;28;20432;-67
2022/09/04 00:19:46;;;;;;;;;;;19.70;99.90;;;;;;5034780;28;19928;-67
2022/09/04 00:22:31;;;;;;;;;;;19.70;99.90;;;;;;5038893;28;20533;-68
2022/09/04 00:25:26;;;;;;;;;;;19.70;99.90;;;;;;5039417;28;19976;-67
2022/09/04 00:27:58;;;;;;;;;;;19.60;99.90;;;;;;5021443;28;19913;-66
2022/09/04 00:30:23;;;;;;;;;;;19.60;99.90;;;;;;5036494;28;19925;-66
2022/09/04 00:32:50;;;;;;;;;;;19.60;99.90;;;;;;5035886;28;19921;-68
2022/09/04 00:35:19;;;;;;;;;;;19.60;99.90;;;;;;5039709;28;19920;-66
2022/09/04 00:37:47;;;;;;;;;;;19.60;99.90;;;;;;5038365;28;19917;-67
2022/09/04 00:40:13;;;;;;;;;;;19.60;99.90;;;;;;5047784;28;19932;-67
2022/09/04 00:42:47;;;;;;;;;;;19.60;99.90;;;;;;5036243;28;19917;-67
2022/09/04 00:45:32;;;;;;;;;;;19.60;99.90;;;;;;5034658;28;20447;-66
2022/09/04 00:48:00;;;;;;;;;;;19.60;99.90;;;;;;5036969;28;19928;-67
2022/09/04 00:50:30;;;;;;;;;;;19.50;99.90;;;;;;5036785;28;20023;-66
2022/09/04 00:53:15;;;;;;;;;;;19.50;99.90;;;;;;5037131;28;19913;-67
2022/09/04 00:55:43;;;;;;;;;;;19.60;99.90;;;;;;5041070;28;19928;-67
2022/09/04 00:58:27;;;;;;;;;;;19.50;99.90;;;;;;5041401;28;19998;-68
2022/09/04 01:00:55;;;;;;;;;;;19.40;99.90;;;;;;5036414;28;19924;-67
2022/09/04 01:03:33;;;;;;;;;;;19.50;99.90;;;;;;5037124;28;20015;-67
2022/09/04 01:06:11;;;;;;;;;;;19.60;99.90;;;;;;5051171;28;19925;-67
2022/09/04 01:08:56;;;;;;;;;;;19.60;99.90;;;;;;5034648;28;19921;-67
2022/09/04 01:11:24;;;;;;;;;;;19.60;99.90;;;;;;5038404;28;20338;-66
2022/09/04 01:13:59;;;;;;;;;;;19.60;99.90;;;;;;5036954;28;19920;-67
2022/09/04 01:16:28;;;;;;;;;;;19.60;99.90;;;;;;5042468;28;20368;-66
2022/09/04 01:19:12;;;;;;;;;;;19.60;99.90;;;;;;5039147;28;19913;-67
2022/09/04 01:21:40;;;;;;;;;;;19.60;99.90;;;;;;5041055;28;19921;-67
2022/09/04 01:24:25;;;;;;;;;;;19.70;99.90;;;;;;5041408;28;19981;-67
2022/09/04 01:27:14;;;;;;;;;;;19.70;99.90;;;;;;5040635;28;19928;-67
2022/09/04 01:29:52;;;;;;;;;;;19.70;99.90;;;;;;5033698;28;19921;-67
2022/09/04 01:32:24;;;;;;;;;;;19.70;99.90;;;;;;5036517;28;20007;-67
2022/09/04 01:34:58;;;;;;;;;;;19.70;99.90;;;;;;5040385;28;20397;-68
2022/09/04 01:37:42;;;;;;;;;;;19.60;99.90;;;;;;5039751;28;20043;-67
2022/09/04 01:40:17;;;;;;;;;;;19.60;99.90;;;;;;5039017;28;19967;-67
2022/09/04 01:42:53;;;;;;;;;;;19.60;99.90;;;;;;5041327;28;19992;-67
2022/09/04 01:45:28;;;;;;;;;;;19.60;99.90;;;;;;5040372;28;20153;-67
2022/09/04 01:47:57;;;;;;;;;;;19.60;99.90;;;;;;5041359;28;19943;-67
2022/09/04 01:50:24;;;;;;;;;;;19.60;99.90;;;;;;5042232;28;19928;-67
2022/09/04 01:53:08;;;;;;;;;;;19.70;99.90;;;;;;5042519;28;19927;-67
2022/09/04 01:55:42;;;;;;;;;;;19.70;99.90;;;;;;5042512;28;20326;-67
2022/09/04 01:58:17;;;;;;;;;;;19.70;99.90;;;;;;5042481;28;19925;-68
2022/09/04 02:00:57;;;;;;;;;;;19.70;99.90;;;;;;5040228;28;19920;-67
2022/09/04 02:03:26;;;;;;;;;;;19.80;99.90;;;;;;5044022;28;19919;-67
2022/09/04 02:05:59;;;;;;;;;;;19.80;99.90;;;;;;5041096;28;19921;-68
2022/09/04 02:08:43;;;;;;;;;;;19.80;99.90;;;;;;5045633;28;20192;-67
2022/09/04 02:11:09;;;;;;;;;;;19.70;99.90;;;;;;5046501;28;19916;-66
2022/09/04 02:13:55;;;;;;;;;;;19.80;99.90;;;;;;5044068;28;19917;-67
2022/09/04 02:16:41;;;;;;;;;;;19.80;99.90;;;;;;5041966;28;20275;-67
2022/09/04 02:19:16;;;;;;;;;;;19.80;99.90;;;;;;5040722;28;19951;-66
2022/09/04 02:21:59;;;;;;;;;;;19.80;99.90;;;;;;5040262;28;19913;-67
2022/09/04 02:24:36;;;;;;;;;;;19.80;99.90;;;;;;5039370;28;20364;-66
2022/09/04 02:27:28;;;;;;;;;;;19.70;99.90;;;;;;5035589;28;19921;-68
2022/09/04 02:30:07;;;;;;;;;;;19.80;99.90;;;;;;5030296;28;19913;-66
2022/09/04 02:32:38;;;;;;;;;;;19.80;99.90;;;;;;5027311;28;19939;-68
2022/09/04 02:35:08;;;;;;;;;;;19.80;99.90;;;;;;5034075;28;19927;-67
2022/09/04 02:37:40;;;;;;;;;;;19.70;99.90;;;;;;5042238;28;20356;-66
2022/09/04 02:40:11;;;;;;;;;;;19.70;99.90;;;;;;5042476;28;20008;-67
2022/09/04 02:42:55;;;;;;;;;;;19.80;99.90;;;;;;5038863;28;19983;-66
2022/09/04 02:45:33;;;;;;;;;;;19.80;99.90;;;;;;5037031;28;19917;-67
2022/09/04 02:48:05;;;;;;;;;;;19.80;99.90;;;;;;5037687;28;19921;-67
2022/09/04 02:50:44;;;;;;;;;;;19.70;99.90;;;;;;5036554;28;20297;-66
2022/09/04 02:53:13;;;;;;;;;;;19.70;99.90;;;;;;5035795;28;19913;-67
2022/09/04 02:55:51;;;;;;;;;;;19.70;99.90;;;;;;5039852;28;19913;-66
2022/09/04 02:58:38;;;;;;;;;;;19.80;99.90;;;;;;5041985;28;19921;-67
2022/09/04 03:01:21;;;;;;;;;;;19.70;99.90;;;;;;5034344;28;20056;-68
2022/09/04 03:03:52;;;;;;;;;;;19.70;99.90;;;;;;5037570;28;19917;-68
2022/09/04 03:06:21;;;;;;;;;;;19.70;99.90;;;;;;5035128;28;19921;-67
2022/09/04 03:09:00;;;;;;;;;;;19.70;99.90;;;;;;5037496;28;19921;-67
2022/09/04 03:11:35;;;;;;;;;;;19.70;99.90;;;;;;5033448;28;19948;-66
2022/09/04 03:14:00;;;;;;;;;;;19.80;99.90;;;;;;5036485;28;19925;-66
2022/09/04 03:16:29;;;;;;;;;;;19.80;99.90;;;;;;5041458;28;19913;-69
2022/09/04 03:19:14;;;;;;;;;;;19.80;99.90;;;;;;5040831;28;20336;-66
2022/09/04 03:21:40;;;;;;;;;;;19.90;99.90;;;;;;5037208;28;19931;-67
2022/09/04 03:24:14;;;;;;;;;;;19.80;99.90;;;;;;5038304;28;19920;-67
2022/09/04 03:26:43;;;;;;;;;;;19.80;99.90;;;;;;5034982;28;20364;-67
2022/09/04 03:29:31;;;;;;;;;;;19.80;99.90;;;;;;5042514;28;20429;-67
2022/09/04 03:32:03;;;;;;;;;;;19.80;99.90;;;;;;5044165;28;19913;-67
2022/09/04 03:34:28;;;;;;;;;;;19.90;99.90;;;;;;5043036;28;21215;-66
2022/09/04 03:37:03;;;;;;;;;;;19.80;99.90;;;;;;5039638;28;19924;-67
2022/09/04 03:39:38;;;;;;;;;;;20.00;99.90;;;;;;5036574;28;20331;-68
2022/09/04 03:42:22;;;;;;;;;;;19.90;99.90;;;;;;5038444;28;20268;-67
2022/09/04 03:45:00;;;;;;;;;;;19.80;99.90;;;;;;5033661;28;20359;-67
2022/09/04 03:47:36;;;;;;;;;;;19.80;99.90;;;;;;5033694;28;19921;-67
2022/09/04 03:50:10;;;;;;;;;;;19.80;99.90;;;;;;5032910;28;20502;-67
2022/09/04 03:52:44;;;;;;;;;;;19.70;99.90;;;;;;5033859;28;19924;-66
2022/09/04 03:55:14;;;;;;;;;;;19.70;99.90;;;;;;5032243;28;19928;-67
2022/09/04 03:57:58;;;;;;;;;;;19.80;99.90;;;;;;5033953;28;20332;-67
2022/09/04 04:00:24;;;;;;;;;;;19.80;99.90;;;;;;5028407;28;20019;-67
2022/09/04 04:03:02;;;;;;;;;;;19.70;99.90;;;;;;5029375;28;19921;-67
2022/09/04 04:05:43;;;;;;;;;;;19.70;99.90;;;;;;5022451;28;20340;-67
2022/09/04 04:08:09;;;;;;;;;;;19.80;99.90;;;;;;5033420;28;19919;-67
2022/09/04 04:10:44;;;;;;;;;;;19.80;99.90;;;;;;5039552;28;19932;-66
2022/09/04 04:13:30;;;;;;;;;;;19.70;99.90;;;;;;5035692;28;20029;-67
2022/09/04 04:16:14;;;;;;;;;;;19.70;99.90;;;;;;5038030;28;19912;-67
2022/09/04 04:18:42;;;;;;;;;;;19.70;99.90;;;;;;5044731;28;19944;-67
2022/09/04 04:21:32;;;;;;;;;;;19.80;99.90;;;;;;5040431;28;19924;-66
2022/09/04 04:24:16;;;;;;;;;;;19.80;99.90;;;;;;5041244;28;19976;-67
2022/09/04 04:26:42;;;;;;;;;;;19.80;99.90;;;;;;5052491;28;19928;-67
2022/09/04 04:29:07;;;;;;;;;;;19.70;99.90;;;;;;5043246;28;19916;-67
2022/09/04 04:31:39;;;;;;;;;;;19.70;99.90;;;;;;5044800;28;19917;-67
2022/09/04 04:34:20;;;;;;;;;;;19.70;99.90;;;;;;5038607;28;20827;-66
2022/09/04 04:36:58;;;;;;;;;;;19.80;99.90;;;;;;5041142;28;19988;-67
2022/09/04 04:39:30;;;;;;;;;;;19.70;99.90;;;;;;5043501;28;19927;-67
2022/09/04 04:42:05;;;;;;;;;;;19.60;99.90;;;;;;5043167;28;19921;-68
2022/09/04 04:47:23;;;;;;;;;;;19.70;99.90;;;;;;5046840;28;20064;-67
2022/09/04 04:49:49;;;;;;;;;;;19.70;99.90;;;;;;5046331;28;19920;-67
2022/09/04 04:52:18;;;;;;;;;;;19.60;99.90;;;;;;5047503;28;20505;-68
2022/09/04 04:55:05;;;;;;;;;;;19.50;99.90;;;;;;5041590;28;19940;-67
2022/09/04 04:58:00;;;;;;;;;;;19.50;99.90;;;;;;5044728;28;19978;-67
2022/09/04 05:00:38;;;;;;;;;;;19.50;99.90;;;;;;5038605;28;19920;-67
2022/09/04 05:03:07;;;;;;;;;;;19.60;99.90;;;;;;5049045;28;19913;-66
2022/09/04 05:05:52;;;;;;;;;;;19.60;99.90;;;;;;5050043;28;19913;-67
2022/09/04 05:08:21;;;;;;;;;;;19.70;99.90;;;;;;5050957;28;19924;-67
2022/09/04 05:11:06;;;;;;;;;;;19.70;99.90;;;;;;5045606;28;19921;-66
2022/09/04 05:13:45;;;;;;;;;;;19.80;99.90;;;;;;5024101;28;20394;-67
2022/09/04 05:16:28;;;;;;;;;;;19.80;99.90;;;;;;5040239;28;20019;-68
2022/09/04 05:18:58;;;;;;;;;;;19.80;99.90;;;;;;5039725;28;19921;-67
2022/09/04 05:21:38;;;;;;;;;;;19.70;99.90;;;;;;5040020;28;19928;-67
2022/09/04 05:24:09;;;;;;;;;;;19.80;99.90;;;;;;5042581;28;20363;-67
2022/09/04 05:26:35;;;;;;;;;;;19.80;99.90;;;;;;5038300;28;19920;-67
2022/09/04 05:29:15;;;;;;;;;;;19.80;99.90;;;;;;5039886;28;20609;-67
2022/09/04 05:31:53;;;;;;;;;;;19.80;99.90;;;;;;5036101;28;20435;-66
2022/09/04 05:34:35;;;;;;;;;;;19.80;99.90;;;;;;5037218;28;19939;-67
2022/09/04 05:37:10;;;;;;;;;;;19.70;99.90;;;;;;5037780;28;19929;-67
2022/09/04 05:39:54;;;;;;;;;;;19.70;99.90;;;;;;5034771;28;20486;-67
2022/09/04 05:42:22;;;;;;;;;;;19.70;99.90;;;;;;5041234;28;19928;-66
2022/09/04 05:45:06;;;;;;;;;;;19.70;99.90;;;;;;5044987;28;19978;-66
2022/09/04 05:47:47;;;;;;;;;;;19.70;99.90;;;;;;5042801;28;19917;-66
2022/09/04 05:50:25;;;;;;;;;;;19.70;99.90;;;;;;5038839;28;20546;-66
2022/09/04 05:52:50;;;;;;;;;;;19.70;99.90;;;;;;5032260;28;20616;-67
2022/09/04 05:55:36;;;;;;;;;;;19.70;99.90;;;;;;5037892;28;19921;-67
2022/09/04 05:58:32;;;;;;;;;;;19.70;99.90;;;;;;5035868;28;19929;-67
2022/09/04 06:00:59;;;;;;;;;;;19.70;99.90;;;;;;5016805;28;19913;-67
2022/09/04 06:03:43;;;;;;;;;;;19.60;99.90;;;;;;5039430;28;19913;-68
2022/09/04 06:06:20;;;;;;;;;;;19.60;99.90;;;;;;5038492;28;19909;-66
2022/09/04 06:08:52;;;;;;;;;;;19.60;99.90;;;;;;5039380;28;19931;-66
2022/09/04 06:11:37;;;;;;;;;;;19.70;99.90;;;;;;5039032;28;20513;-67
2022/09/04 06:14:21;;;;;;;;;;;19.70;99.90;;;;;;5034746;28;19920;-68
2022/09/04 06:17:02;;;;;;;;;;;19.80;99.90;;;;;;5033107;28;19932;-67
2022/09/04 06:19:51;;;;;;;;;;;19.80;99.90;;;;;;5034119;28;20280;-67
2022/09/04 06:22:25;;;;;;;;;;;19.80;99.90;;;;;;5032714;28;20034;-67
2022/09/04 06:25:00;;;;;;;;;;;19.90;99.90;;;;;;5031764;28;19984;-67
2022/09/04 06:27:40;;;;;;;;;;;20.00;99.90;;;;;;5029672;28;20133;-67
2022/09/04 06:30:07;;;;;;;;;;;20.00;99.90;;;;;;5033670;28;19953;-68
2022/09/04 06:32:33;;;;;;;;;;;20.00;99.90;;;;;;5037583;28;19974;-67
2022/09/04 06:35:08;;;;;;;;;;;20.00;99.90;;;;;;5040154;28;19921;-68
2022/09/04 06:37:37;;;;;;;;;;;20.10;99.90;;;;;;5044945;28;19947;-67
2022/09/04 06:40:22;;;;;;;;;;;20.10;99.90;;;;;;5044607;28;20326;-68
2022/09/04 06:43:07;;;;;;;;;;;20.10;99.90;;;;;;5048620;28;20508;-68
2022/09/04 06:45:32;;;;;;;;;;;20.20;99.90;;;;;;5048933;28;20644;-67
2022/09/04 06:48:16;;;;;;;;;;;20.10;99.90;;;;;;5046439;28;19925;-67
2022/09/04 06:51:06;;;;;;;;;;;20.10;99.90;;;;;;5060372;28;20298;-67
2022/09/04 06:53:41;;;;;;;;;;;20.10;99.90;;;;;;5034630;28;19920;-68
2022/09/04 06:56:06;;;;;;;;;;;20.20;99.90;;;;;;5048089;28;19958;-67
2022/09/04 06:58:56;;;;;;;;;;;20.20;99.90;;;;;;5051213;28;19948;-68
2022/09/04 07:01:38;;;;;;;;;;;20.30;99.90;;;;;;5057631;28;19928;-69
2022/09/04 07:04:22;;;;;;;;;;;20.40;99.90;;;;;;5043598;28;20322;-70
2022/09/04 07:06:57;;;;;;;;;;;20.30;99.90;;;;;;5042652;28;19917;-69
2022/09/04 07:09:29;;;;;;;;;;;20.30;99.90;;;;;;5042409;28;20911;-70
2022/09/04 07:12:00;;;;;;;;;;;20.20;99.90;;;;;;5035201;28;20478;-70
2022/09/04 07:14:40;;;;;;;;;;;20.30;99.90;;;;;;5037724;28;19913;-69
2022/09/04 07:17:23;;;;;;;;;;;20.30;99.90;;;;;;5047188;28;19997;-67
2022/09/04 07:19:51;;;;;;;;;;;20.40;99.90;;;;;;5061401;28;19974;-69
2022/09/04 07:22:36;;;;;;;;;;;20.40;99.90;;;;;;5032692;28;19960;-70
2022/09/04 07:25:22;;;;;;;;;;;20.40;99.90;;;;;;5037797;28;19924;-69
2022/09/04 07:27:51;;;;;;;;;;;20.50;99.90;;;;;;5039599;28;20039;-67
2022/09/04 07:30:18;;;;;;;;;;;20.60;99.90;;;;;;5038691;28;20267;-69
2022/09/04 07:32:50;;;;;;;;;;;20.50;99.90;;;;;;5038701;28;19917;-69
2022/09/04 07:35:20;;;;;;;;;;;20.50;99.90;;;;;;5041735;28;20014;-68
2022/09/04 07:37:49;;;;;;;;;;;20.50;99.90;;;;;;5037156;28;19960;-68
2022/09/04 07:40:18;;;;;;;;;;;20.40;99.90;;;;;;5036100;28;19917;-68
2022/09/04 07:42:44;;;;;;;;;;;20.20;99.90;;;;;;5041187;28;19917;-68
2022/09/04 07:45:32;;;;;;;;;;;20.20;99.90;;;;;;5041404;28;20675;-68
2022/09/04 07:47:58;;;;;;;;;;;20.20;99.90;;;;;;5039241;28;20008;-69
2022/09/04 07:50:28;;;;;;;;;;;20.20;99.90;;;;;;5036387;28;20365;-68
2022/09/04 07:53:01;;;;;;;;;;;20.30;99.90;;;;;;5039407;28;19913;-68
2022/09/04 07:55:26;;;;;;;;;;;20.40;99.90;;;;;;5040235;28;20287;-69
2022/09/04 07:57:58;;;;;;;;;;;20.50;99.90;;;;;;5041012;28;20453;-69
2022/09/04 08:00:25;;;;;;;;;;;20.60;99.90;;;;;;5039043;28;20065;-68
2022/09/04 08:03:17;;;;;;;;;;;20.60;99.90;;;;;;5041746;28;19925;-69
2022/09/04 08:05:50;;;;;;;;;;;20.60;99.90;;;;;;5044290;28;19921;-68
2022/09/04 08:08:27;;;;;;;;;;;20.70;99.90;;;;;;5044180;28;19980;-67
2022/09/04 08:11:12;;;;;;;;;;;20.70;99.90;;;;;;5040703;28;19923;-67
2022/09/04 08:13:50;;;;;;;;;;;20.60;99.90;;;;;;5039048;28;20521;-67
2022/09/04 08:16:24;;;;;;;;;;;20.60;99.90;;;;;;5034510;28;19973;-69
2022/09/04 08:19:02;;;;;;;;;;;20.70;99.90;;;;;;5035777;28;19924;-69
2022/09/04 08:21:29;;;;;;;;;;;20.90;99.90;;;;;;5041526;28;20010;-70
2022/09/04 08:23:57;;;;;;;;;;;20.80;99.90;;;;;;5040080;28;19920;-69
2022/09/04 08:26:41;;;;;;;;;;;20.90;99.90;;;;;;5035444;28;19927;-69
2022/09/04 08:29:16;;;;;;;;;;;20.90;99.90;;;;;;5034430;28;19920;-70
2022/09/04 08:31:52;;;;;;;;;;;20.90;99.90;;;;;;5036501;28;19928;-69
2022/09/04 08:34:18;;;;;;;;;;;21.00;99.90;;;;;;5053695;28;19944;-69
2022/09/04 08:36:52;;;;;;;;;;;21.10;99.90;;;;;;5042542;28;20617;-69
2022/09/04 08:39:18;;;;;;;;;;;21.10;99.90;;;;;;5041673;28;20375;-72
2022/09/04 08:41:44;;;;;;;;;;;21.10;99.90;;;;;;5040455;28;19919;-70
2022/09/04 08:44:15;;;;;;;;;;;21.00;99.90;;;;;;5039176;28;19912;-69
2022/09/04 08:46:43;;;;;;;;;;;21.00;99.90;;;;;;5039237;28;20015;-69
2022/09/04 08:49:10;;;;;;;;;;;21.00;99.90;;;;;;5041121;28;19913;-69
2022/09/04 08:51:41;;;;;;;;;;;21.00;99.90;;;;;;5039939;28;19960;-70
2022/09/04 08:54:27;;;;;;;;;;;21.00;99.90;;;;;;5039478;28;19974;-70
2022/09/04 08:57:16;;;;;;;;;;;21.10;99.90;;;;;;5039495;28;19933;-71
2022/09/04 08:59:47;;;;;;;;;;;21.30;99.90;;;;;;5044667;28;19948;-69
2022/09/04 09:02:19;;;;;;;;;;;21.50;99.90;;;;;;5040934;28;19928;-70
2022/09/04 09:05:00;;;;;;;;;;;21.60;99.90;;;;;;5038289;28;21624;-70
2022/09/04 09:07:35;;;;;;;;;;;21.50;99.90;;;;;;5036797;28;19917;-72
2022/09/04 09:10:17;;;;;;;;;;;21.40;99.90;;;;;;5038111;28;19924;-69
2022/09/04 09:12:57;;;;;;;;;;;21.50;99.90;;;;;;5038856;28;19921;-70
2022/09/04 09:15:23;;;;;;;;;;;21.50;99.90;;;;;;5040148;28;19921;-69
2022/09/04 09:18:07;;;;;;;;;;;21.50;99.90;;;;;;5041963;28;20012;-70
2022/09/04 09:20:48;;;;;;;;;;;21.50;99.90;;;;;;5035264;28;19963;-70
2022/09/04 09:23:15;;;;;;;;;;;21.80;99.90;;;;;;5036745;28;19919;-70
2022/09/04 09:25:44;;;;;;;;;;;22.00;99.90;;;;;;5039879;28;20414;-69
2022/09/04 09:28:18;;;;;;;;;;;22.10;99.90;;;;;;5047655;28;20222;-69
2022/09/04 09:30:49;;;;;;;;;;;22.10;99.90;;;;;;5048274;28;20279;-69
2022/09/04 09:33:34;;;;;;;;;;;22.00;99.90;;;;;;5059013;28;19913;-69
2022/09/04 09:36:19;;;;;;;;;;;22.00;99.90;;;;;;5050658;28;19913;-70
2022/09/04 09:38:47;;;;;;;;;;;22.00;99.90;;;;;;5072091;28;19952;-69
2022/09/04 09:41:27;;;;;;;;;;;22.00;99.90;;;;;;5040757;28;20017;-70
2022/09/04 09:44:04;;;;;;;;;;;21.80;99.90;;;;;;5047675;28;20384;-70
2022/09/04 09:46:41;;;;;;;;;;;21.90;99.90;;;;;;5045589;28;19995;-71
2022/09/04 09:49:25;;;;;;;;;;;22.20;99.90;;;;;;5048117;28;19913;-70
2022/09/04 09:51:54;;;;;;;;;;;22.40;99.90;;;;;;5058336;28;20604;-69
2022/09/04 09:54:38;;;;;;;;;;;22.40;99.90;;;;;;5044965;28;19916;-69
2022/09/04 09:57:04;;;;;;;;;;;22.40;99.90;;;;;;5046236;28;20027;-69
2022/09/04 09:59:29;;;;;;;;;;;22.30;99.90;;;;;;5048446;28;20011;-69
2022/09/04 10:02:07;;;;;;;;;;;22.20;99.90;;;;;;5046165;28;19920;-70
2022/09/04 10:04:51;;;;;;;;;;;22.20;99.90;;;;;;5047556;28;19952;-69
2022/09/04 10:07:18;;;;;;;;;;;22.20;99.90;;;;;;5047864;28;20037;-70
2022/09/04 10:09:59;;;;;;;;;;;22.10;99.90;;;;;;5044663;28;20873;-69
2022/09/04 10:12:41;;;;;;;;;;;22.10;99.90;;;;;;5044101;28;19931;-69
2022/09/04 10:15:13;;;;;;;;;;;22.10;99.90;;;;;;5044025;28;19913;-70
2022/09/04 10:17:53;;;;;;;;;;;21.90;99.90;;;;;;5049885;28;19925;-70
2022/09/04 10:20:38;;;;;;;;;;;22.00;99.90;;;;;;5045329;28;19939;-70
2022/09/04 10:23:22;;;;;;;;;;;22.10;99.90;;;;;;5044381;28;19917;-70
2022/09/04 10:26:02;;;;;;;;;;;22.00;99.90;;;;;;5038539;28;19919;-69
2022/09/04 10:28:34;;;;;;;;;;;22.20;99.90;;;;;;5044095;28;20347;-69
2022/09/04 10:31:02;;;;;;;;;;;22.20;99.90;;;;;;5046839;28;19917;-71
2022/09/04 10:33:30;;;;;;;;;;;22.20;99.90;;;;;;5046580;28;19965;-70
2022/09/04 10:36:05;;;;;;;;;;;22.30;99.90;;;;;;5039753;28;19924;-69
2022/09/04 10:40:34;;;;;;;;;;;22.30;99.90;;;;;;5033189;28;19937;-70
2022/09/04 10:41:42;;;;;;;;;;;22.40;99.90;;;;;;5041319;28;20280;-71
2022/09/04 10:44:26;;;;;;;;;;;22.60;99.90;;;;;;5042734;28;21967;-71
2022/09/04 10:46:51;;;;;;;;;;;22.70;99.90;;;;;;5041297;28;19974;-72
2022/09/04 10:49:17;;;;;;;;;;;22.90;99.90;;;;;;5046493;28;19913;-69
2022/09/04 10:52:03;;;;;;;;;;;23.20;99.90;;;;;;5050201;28;19913;-69
2022/09/04 10:54:49;;;;;;;;;;;23.20;99.90;;;;;;5048807;28;19913;-70
2022/09/04 10:57:35;;;;;;;;;;;23.10;99.90;;;;;;5036099;28;20214;-72
2022/09/04 11:00:10;;;;;;;;;;;23.20;99.90;;;;;;5040510;28;20089;-71
2022/09/04 11:02:45;;;;;;;;;;;23.30;99.90;;;;;;5040637;28;19925;-71
2022/09/04 11:05:23;;;;;;;;;;;23.30;99.90;;;;;;5046674;28;20368;-71
2022/09/04 11:08:05;;;;;;;;;;;23.40;99.90;;;;;;5039253;28;19913;-70
2022/09/04 11:10:50;;;;;;;;;;;23.40;99.90;;;;;;5041234;28;19924;-72
2022/09/04 11:13:34;;;;;;;;;;;23.50;99.90;;;;;;5044533;28;19999;-71
2022/09/04 11:16:08;;;;;;;;;;;23.30;99.90;;;;;;5044912;28;19929;-69
2022/09/04 11:18:36;;;;;;;;;;;23.00;99.90;;;;;;5047015;28;19929;-70
2022/09/04 11:21:06;;;;;;;;;;;23.00;99.90;;;;;;5043202;28;19928;-71
2022/09/04 11:23:50;;;;;;;;;;;23.00;99.90;;;;;;5035457;28;19960;-70
2022/09/04 11:26:36;;;;;;;;;;;23.10;99.90;;;;;;5028057;28;21095;-70
2022/09/04 11:29:02;;;;;;;;;;;23.50;99.90;;;;;;5029572;28;19916;-70
2022/09/04 11:31:47;;;;;;;;;;;23.70;99.90;;;;;;5037383;28;19920;-71
2022/09/04 11:34:12;;;;;;;;;;;23.60;99.90;;;;;;5035655;28;19921;-70
2022/09/04 11:36:57;;;;;;;;;;;23.40;99.90;;;;;;5043912;28;20012;-69
2022/09/04 11:39:41;;;;;;;;;;;23.20;99.90;;;;;;5044089;28;19990;-70
2022/09/04 11:42:19;;;;;;;;;;;23.10;99.90;;;;;;5041409;28;19921;-71
2022/09/04 11:44:45;;;;;;;;;;;23.10;99.90;;;;;;5039200;28;19913;-70
2022/09/04 11:47:27;;;;;;;;;;;23.20;99.90;;;;;;5057998;28;19990;-69
2022/09/04 11:49:52;;;;;;;;;;;23.30;99.90;;;;;;5039001;28;20392;-70
2022/09/04 11:52:21;;;;;;;;;;;23.30;99.90;;;;;;5037894;28;19951;-70
2022/09/04 11:55:05;;;;;;;;;;;23.40;99.90;;;;;;5036188;28;19917;-70
2022/09/04 11:57:37;;;;;;;;;;;23.60;99.90;;;;;;5036585;28;19929;-70
2022/09/04 12:00:04;;;;;;;;;;;23.90;99.90;;;;;;5039516;28;20019;-69
2022/09/04 12:02:49;;;;;;;;;;;23.90;99.90;;;;;;5051093;28;20000;-72
2022/09/04 12:05:14;;;;;;;;;;;23.90;99.90;;;;;;5037776;28;19913;-72
2022/09/04 12:07:59;;;;;;;;;;;23.60;99.90;;;;;;5033599;28;19917;-71
2022/09/04 12:10:25;;;;;;;;;;;23.50;99.90;;;;;;5033748;28;19916;-71
2022/09/04 12:13:17;;;;;;;;;;;23.30;99.90;;;;;;5033020;28;19924;-70
2022/09/04 12:16:03;;;;;;;;;;;23.40;99.90;;;;;;5035320;28;19921;-69
2022/09/04 12:18:53;;;;;;;;;;;23.30;99.90;;;;;;5036737;28;20000;-70
2022/09/04 12:21:39;;;;;;;;;;;23.40;99.90;;;;;;5036613;28;19916;-71
2022/09/04 12:24:11;;;;;;;;;;;23.30;99.90;;;;;;5034168;28;20356;-73
2022/09/04 12:26:51;;;;;;;;;;;23.20;99.90;;;;;;5033968;28;19921;-70
2022/09/04 12:29:37;;;;;;;;;;;23.30;99.90;;;;;;5040791;28;19982;-73
2022/09/04 12:32:06;;;;;;;;;;;23.40;99.90;;;;;;5028725;28;19921;-72
2022/09/04 12:34:34;;;;;;;;;;;23.30;99.90;;;;;;5036338;28;19971;-70
2022/09/04 12:37:19;;;;;;;;;;;23.40;99.90;;;;;;5035468;28;19964;-70
2022/09/04 12:40:04;;;;;;;;;;;23.50;99.90;;;;;;5035067;28;19913;-71
2022/09/04 12:42:52;;;;;;;;;;;23.70;99.90;;;;;;5039905;28;19921;-68
2022/09/04 12:45:23;;;;;;;;;;;23.50;99.90;;;;;;5037132;28;19924;-70
2022/09/04 12:48:10;;;;;;;;;;;23.40;99.90;;;;;;5071075;28;19920;-69
2022/09/04 12:50:38;;;;;;;;;;;23.40;99.90;;;;;;5035818;28;20342;-70
2022/09/04 12:53:07;;;;;;;;;;;23.30;99.90;;;;;;5038747;28;20383;-71
2022/09/04 12:55:38;;;;;;;;;;;23.30;99.90;;;;;;5035158;28;19999;-70
2022/09/04 12:58:11;;;;;;;;;;;23.10;99.90;;;;;;5029945;28;20380;-72
2022/09/04 13:00:45;;;;;;;;;;;23.00;99.90;;;;;;5029982;28;20394;-68
2022/09/04 13:03:29;;;;;;;;;;;23.00;99.90;;;;;;5042104;28;19913;-70
2022/09/04 13:06:02;;;;;;;;;;;23.10;99.90;;;;;;5028866;28;19928;-66
2022/09/04 13:08:49;;;;;;;;;;;23.40;99.90;;;;;;5036334;28;20363;-67
2022/09/04 13:11:25;;;;;;;;;;;23.70;99.90;;;;;;5037495;28;19966;-68
2022/09/04 13:14:09;;;;;;;;;;;23.90;98.80;;;;;;5036369;28;19920;-70
2022/09/04 13:16:34;;;;;;;;;;;23.90;97.90;;;;;;5034100;28;19921;-69
2022/09/04 13:19:03;;;;;;;;;;;24.00;97.90;;;;;;5031140;28;20901;-70
2022/09/04 13:21:48;;;;;;;;;;;24.00;97.80;;;;;;5033297;28;19917;-71
2022/09/04 13:24:18;;;;;;;;;;;23.90;97.60;;;;;;5032493;28;20371;-71
2022/09/04 13:26:53;;;;;;;;;;;23.80;97.30;;;;;;5039226;28;19913;-70
2022/09/04 13:29:35;;;;;;;;;;;23.50;98.60;;;;;;5038627;28;20336;-70
2022/09/04 13:32:00;;;;;;;;;;;23.30;99.90;;;;;;5051277;28;19928;-69
2022/09/04 13:34:36;;;;;;;;;;;23.10;99.90;;;;;;5035242;28;19920;-71
2022/09/04 13:37:10;;;;;;;;;;;23.20;99.90;;;;;;5032502;28;20143;-70
2022/09/04 13:39:55;;;;;;;;;;;23.30;99.90;;;;;;5033258;28;19931;-69
2022/09/04 13:42:23;;;;;;;;;;;23.20;99.90;;;;;;5069311;28;20044;-69
2022/09/04 13:44:57;;;;;;;;;;;23.30;99.90;;;;;;5037120;28;20282;-69
2022/09/04 13:47:23;;;;;;;;;;;23.50;99.90;;;;;;5039555;28;19971;-68
2022/09/04 13:49:49;;;;;;;;;;;23.80;98.80;;;;;;5041463;28;19916;-71
2022/09/04 13:52:36;;;;;;;;;;;23.90;98.00;;;;;;5035681;28;19913;-70
2022/09/04 13:55:04;;;;;;;;;;;23.80;97.00;;;;;;5040803;28;20323;-70
2022/09/04 13:57:39;;;;;;;;;;;23.80;98.00;;;;;;5038579;28;19928;-70
2022/09/04 14:00:10;;;;;;;;;;;23.90;96.60;;;;;;5036044;28;19921;-71
2022/09/04 14:02:37;;;;;;;;;;;23.80;97.40;;;;;;5041374;28;19935;-71
2022/09/04 14:05:07;;;;;;;;;;;23.80;97.00;;;;;;5037262;28;19917;-72
2022/09/04 14:07:34;;;;;;;;;;;23.90;97.40;;;;;;5040744;28;19924;-72
2022/09/04 14:10:03;;;;;;;;;;;23.90;96.80;;;;;;5040806;28;20386;-71
2022/09/04 14:12:40;;;;;;;;;;;23.80;97.10;;;;;;5043122;28;19920;-71
2022/09/04 14:15:06;;;;;;;;;;;23.70;97.50;;;;;;5054805;28;19924;-71
2022/09/04 14:17:51;;;;;;;;;;;23.80;97.20;;;;;;5044645;28;20062;-69
2022/09/04 14:20:25;;;;;;;;;;;23.90;96.70;;;;;;5033200;28;19917;-69
2022/09/04 14:23:19;;;;;;;;;;;23.90;96.10;;;;;;5043631;28;19931;-69
2022/09/04 14:25:52;;;;;;;;;;;23.90;96.40;;;;;;5033347;28;19912;-69
2022/09/04 14:28:36;;;;;;;;;;;23.90;95.90;;;;;;5039799;28;19913;-70
2022/09/04 14:31:16;;;;;;;;;;;23.90;95.90;;;;;;5032499;28;20745;-66
2022/09/04 14:33:42;;;;;;;;;;;23.70;96.20;;;;;;5044998;28;19921;-68
2022/09/04 14:36:20;;;;;;;;;;;23.50;96.30;;;;;;5045612;28;19982;-68
2022/09/04 14:39:19;;;;;;;;;;;23.40;97.00;;;;;;5049599;28;20421;-67
2022/09/04 14:41:54;;;;;;;;;;;23.50;96.90;;;;;;5034073;28;19913;-68
2022/09/04 14:44:19;;;;;;;;;;;23.80;96.10;;;;;;5050658;28;19932;-68
2022/09/04 14:47:00;;;;;;;;;;;23.90;95.00;;;;;;5047117;28;19930;-66
2022/09/04 14:49:30;;;;;;;;;;;23.80;94.90;;;;;;5051132;28;20026;-68
2022/09/04 14:51:59;;;;;;;;;;;23.90;95.00;;;;;;5055197;28;19995;-66
2022/09/04 14:54:27;;;;;;;;;;;23.90;94.70;;;;;;5050232;28;19944;-67
2022/09/04 14:56:59;;;;;;;;;;;23.90;94.40;;;;;;5053606;28;19921;-67
2022/09/04 14:59:25;;;;;;;;;;;24.00;94.50;;;;;;5051308;28;19916;-67
2022/09/04 15:01:53;;;;;;;;;;;24.10;94.20;;;;;;5053180;28;19955;-67
2022/09/04 15:04:22;;;;;;;;;;;24.20;94.00;;;;;;5052315;28;19928;-67
2022/09/04 15:07:02;;;;;;;;;;;24.20;93.40;;;;;;5052512;28;19966;-67
2022/09/04 15:09:30;;;;;;;;;;;24.10;93.60;;;;;;5054698;28;19913;-67